Time;durP1;ratioP1;P1;durP2;ratioP2;P2;SDS_P1;SDS_P2;PMS_P1;PMS_P2;Temp;Humidity;BMP_temperature;BMP_pressure;BME280_temperature;BME280_humidity;BME280_pressure;Samples;Min_cycle;Max_cycle;Signal;HPM_P1;HPM_P2
2022/10/20 00:01:22;;;;;;;3.60;3.30;;;15.00;90.30;;;;;;4968224;28;20806;-51
2022/10/20 00:03:52;;;;;;;3.70;3.33;;;15.00;90.20;;;;;;4952692;28;20933;-50
2022/10/20 00:06:24;;;;;;;2.97;2.60;;;15.00;90.20;;;;;;4950870;28;20462;-49
2022/10/20 00:08:53;;;;;;;4.47;3.77;;;15.00;90.20;;;;;;4948785;28;20486;-50
2022/10/20 00:11:22;;;;;;;3.40;3.10;;;15.00;90.20;;;;;;4939068;29;20439;-50
2022/10/20 00:13:53;;;;;;;6.07;3.77;;;15.00;90.20;;;;;;4928916;29;20991;-50
2022/10/20 00:16:23;;;;;;;4.33;3.93;;;15.00;90.20;;;;;;4941319;29;20463;-50
2022/10/20 00:18:54;;;;;;;5.00;4.03;;;14.90;90.30;;;;;;4953028;28;20862;-50
2022/10/20 00:21:25;;;;;;;3.97;3.63;;;14.90;90.30;;;;;;4959955;28;20442;-50
2022/10/20 00:23:54;;;;;;;5.23;4.07;;;14.90;90.20;;;;;;4925871;29;20552;-49
2022/10/20 00:26:25;;;;;;;4.10;3.77;;;14.90;90.20;;;;;;4948789;28;20490;-51
2022/10/20 00:28:55;;;;;;;5.30;4.00;;;14.90;90.20;;;;;;4946752;28;20467;-50
2022/10/20 00:31:24;;;;;;;4.67;4.17;;;14.90;90.30;;;;;;4952433;28;20439;-50
2022/10/20 00:33:55;;;;;;;3.87;3.20;;;14.90;90.30;;;;;;4934149;29;20554;-50
2022/10/20 00:36:24;;;;;;;3.50;3.20;;;14.90;90.30;;;;;;4936202;28;20474;-50
2022/10/20 00:38:58;;;;;;;4.23;3.63;;;14.90;90.30;;;;;;4955955;28;20447;-49
2022/10/20 00:41:27;;;;;;;4.40;4.00;;;14.90;90.40;;;;;;4942523;29;20457;-49
2022/10/20 00:43:57;;;;;;;5.20;4.37;;;14.90;90.30;;;;;;4959145;28;20464;-50
2022/10/20 00:46:32;;;;;;;4.70;4.23;;;14.90;90.40;;;;;;4950416;28;20475;-49
2022/10/20 00:49:11;;;;;;;8.37;4.50;;;14.90;90.40;;;;;;4935275;29;20463;-50
2022/10/20 00:51:40;;;;;;;4.00;3.60;;;14.90;90.40;;;;;;4949033;29;20492;-50
2022/10/20 00:54:13;;;;;;;3.87;3.57;;;14.90;90.30;;;;;;4937814;29;20479;-49
2022/10/20 00:56:44;;;;;;;4.23;3.63;;;14.90;90.40;;;;;;4951352;29;20519;-49
2022/10/20 00:59:16;;;;;;;4.90;4.43;;;14.90;90.30;;;;;;4949562;28;20448;-50
2022/10/20 01:01:49;;;;;;;4.90;3.47;;;14.90;90.30;;;;;;4936808;28;20458;-49
2022/10/20 01:04:19;;;;;;;3.30;3.00;;;14.90;90.30;;;;;;4931132;29;20570;-50
2022/10/20 01:06:48;;;;;;;7.93;4.03;;;14.90;90.40;;;;;;4939787;28;20534;-50
2022/10/20 01:09:17;;;;;;;8.00;3.90;;;14.90;90.30;;;;;;4943809;29;20503;-50
2022/10/20 01:11:54;;;;;;;4.27;3.80;;;14.90;90.40;;;;;;4930923;28;20451;-50
2022/10/20 01:14:33;;;;;;;5.00;4.00;;;14.90;90.40;;;;;;4949284;28;21143;-50
2022/10/20 01:17:10;;;;;;;4.40;4.00;;;14.80;90.30;;;;;;4950662;29;20580;-50
2022/10/20 01:20:18;;;;;;;3.40;3.10;;;14.90;90.40;;;;;;4937318;28;20875;-50
2022/10/20 01:23:22;;;;;;;4.53;3.70;;;14.90;90.20;;;;;;4955666;28;20536;-50
2022/10/20 01:26:07;;;;;;;6.53;3.50;;;14.90;90.20;;;;;;4956502;28;20496;-49
2022/10/20 01:28:42;;;;;;;5.00;4.13;;;14.90;90.20;;;;;;4953630;28;20475;-50
2022/10/20 01:31:17;;;;;;;7.80;3.60;;;14.90;90.20;;;;;;4939216;29;20451;-50
2022/10/20 01:33:53;;;;;;;4.57;3.90;;;14.90;90.30;;;;;;4934573;29;20966;-50
2022/10/20 01:36:28;;;;;;;4.13;3.73;;;14.90;90.20;;;;;;4957000;28;20469;-50
2022/10/20 01:39:02;;;;;;;3.53;2.93;;;14.90;90.20;;;;;;4946305;29;20447;-50
2022/10/20 01:41:35;;;;;;;3.43;3.13;;;14.90;90.20;;;;;;4965327;23;20861;-51
2022/10/20 01:44:10;;;;;;;4.80;3.93;;;14.90;90.10;;;;;;4960785;28;20467;-52
2022/10/20 01:46:41;;;;;;;6.17;3.40;;;14.90;90.20;;;;;;4943323;29;20435;-51
2022/10/20 01:49:11;;;;;;;2.70;2.50;;;14.80;90.10;;;;;;4957062;28;20479;-52
2022/10/20 01:51:40;;;;;;;3.33;3.07;;;14.90;90.00;;;;;;4945413;28;20537;-54
2022/10/20 01:54:23;;;;;;;3.27;2.97;;;14.90;90.10;;;;;;4938688;28;20478;-52
2022/10/20 01:57:14;;;;;;;2.80;2.60;;;14.90;90.00;;;;;;4944344;29;20471;-52
2022/10/20 02:00:01;;;;;;;4.10;3.63;;;14.80;90.10;;;;;;4930507;29;20468;-53
2022/10/20 02:03:19;;;;;;;6.70;4.43;;;14.90;90.10;;;;;;4963248;28;20565;-52
2022/10/20 02:05:59;;;;;;;3.80;3.30;;;14.80;90.00;;;;;;4891193;29;20488;-53
2022/10/20 02:08:34;;;;;;;3.57;3.27;;;14.90;90.20;;;;;;4930638;29;20480;-53
2022/10/20 02:11:06;;;;;;;5.53;4.40;;;14.80;90.10;;;;;;4941799;29;20474;-52
2022/10/20 02:13:38;;;;;;;3.47;3.17;;;14.80;90.10;;;;;;4938035;29;20469;-52
2022/10/20 02:16:13;;;;;;;4.67;3.30;;;14.80;90.10;;;;;;4945752;29;20463;-53
2022/10/20 02:18:43;;;;;;;4.10;3.40;;;14.80;90.00;;;;;;4940977;28;20444;-51
2022/10/20 02:21:12;;;;;;;4.40;4.00;;;14.80;90.40;;;;;;4940051;29;20455;-53
2022/10/20 02:23:44;;;;;;;4.00;3.60;;;14.80;90.00;;;;;;4936487;29;20467;-53
2022/10/20 02:26:17;;;;;;;4.00;3.70;;;14.80;90.00;;;;;;4953483;28;20871;-52
2022/10/20 02:28:48;;;;;;;5.50;3.60;;;14.80;90.00;;;;;;4938786;29;20927;-53
2022/10/20 02:31:19;;;;;;;4.00;3.60;;;14.80;90.10;;;;;;4961593;28;20751;-53
2022/10/20 02:33:48;;;;;;;4.20;3.03;;;14.80;90.50;;;;;;4931478;29;20462;-51
2022/10/20 02:36:20;;;;;;;4.73;3.90;;;14.80;90.10;;;;;;4932308;29;20459;-52
2022/10/20 02:38:49;;;;;;;3.47;3.17;;;14.80;90.10;;;;;;4924537;29;20997;-53
2022/10/20 02:41:17;;;;;;;4.60;3.80;;;14.80;90.00;;;;;;4953445;28;20829;-53
2022/10/20 02:43:46;;;;;;;5.40;4.47;;;14.80;90.20;;;;;;4935220;29;20447;-52
2022/10/20 02:46:15;;;;;;;4.50;4.10;;;14.80;90.10;;;;;;4930008;29;20456;-52
2022/10/20 02:48:46;;;;;;;9.30;4.70;;;14.80;90.20;;;;;;4919082;29;20471;-52
2022/10/20 02:51:16;;;;;;;4.60;4.20;;;14.70;90.20;;;;;;4941994;29;20471;-52
2022/10/20 02:53:45;;;;;;;4.20;3.60;;;14.70;90.20;;;;;;4930055;29;20447;-51
2022/10/20 02:56:13;;;;;;;5.20;4.70;;;14.70;90.20;;;;;;4936603;29;20475;-52
2022/10/20 02:58:42;;;;;;;5.27;4.57;;;14.70;90.20;;;;;;4953728;28;20432;-51
2022/10/20 03:01:10;;;;;;;3.50;3.17;;;14.70;90.20;;;;;;4931028;29;20813;-53
2022/10/20 03:03:39;;;;;;;4.93;3.13;;;14.70;90.10;;;;;;4936654;28;20447;-52
2022/10/20 03:06:10;;;;;;;4.23;3.93;;;14.70;90.10;;;;;;4933720;29;20467;-53
2022/10/20 03:08:39;;;;;;;4.23;3.23;;;14.70;90.10;;;;;;4946427;28;20467;-52
2022/10/20 03:11:08;;;;;;;4.10;3.70;;;14.80;90.20;;;;;;4944952;28;20468;-52
2022/10/20 03:13:37;;;;;;;4.23;3.60;;;14.70;90.00;;;;;;4963208;28;20446;-53
2022/10/20 03:16:05;;;;;;;3.97;3.67;;;14.70;90.10;;;;;;4944307;28;20476;-53
2022/10/20 03:18:34;;;;;;;6.43;4.57;;;14.70;90.20;;;;;;4961666;28;20433;-53
2022/10/20 03:21:03;;;;;;;4.40;3.13;;;14.70;90.20;;;;;;4924165;28;20443;-52
2022/10/20 03:23:32;;;;;;;3.07;2.77;;;14.70;90.10;;;;;;4943937;29;20459;-52
2022/10/20 03:26:02;;;;;;;3.60;2.90;;;14.70;90.00;;;;;;4934675;28;20462;-52
2022/10/20 03:28:31;;;;;;;4.13;3.60;;;14.70;90.10;;;;;;4940814;28;20445;-52
2022/10/20 03:31:00;;;;;;;3.63;3.10;;;14.70;90.00;;;;;;4944401;29;20468;-53
2022/10/20 03:33:28;;;;;;;3.70;3.40;;;14.70;90.00;;;;;;4954659;28;20964;-52
2022/10/20 03:35:57;;;;;;;4.20;3.80;;;14.70;90.00;;;;;;4938955;28;20534;-52
2022/10/20 03:38:25;;;;;;;3.83;3.53;;;14.70;90.10;;;;;;4954211;28;20451;-53
2022/10/20 03:40:55;;;;;;;5.00;4.33;;;14.70;90.00;;;;;;4942160;29;20435;-53
2022/10/20 03:43:24;;;;;;;5.00;3.83;;;14.70;90.00;;;;;;4936176;29;20515;-51
2022/10/20 03:46:02;;;;;;;3.77;3.43;;;14.70;90.10;;;;;;4932686;29;21006;-51
2022/10/20 03:48:31;;;;;;;3.03;2.70;;;14.70;90.00;;;;;;4952849;29;20487;-52
2022/10/20 03:51:00;;;;;;;4.20;3.80;;;14.70;90.00;;;;;;4942223;28;20471;-50
2022/10/20 03:53:29;;;;;;;3.67;3.27;;;14.70;89.90;;;;;;4954130;28;20465;-53
2022/10/20 03:55:59;;;;;;;4.07;3.50;;;14.70;89.70;;;;;;4955949;28;20470;-51
2022/10/20 03:58:27;;;;;;;3.90;3.27;;;14.70;90.00;;;;;;4939481;28;20443;-51
2022/10/20 04:00:56;;;;;;;4.40;4.00;;;14.70;89.70;;;;;;4952786;29;20467;-53
2022/10/20 04:03:25;;;;;;;4.73;3.70;;;14.70;89.90;;;;;;4944428;28;20467;-53
2022/10/20 04:05:53;;;;;;;3.70;3.30;;;14.70;89.80;;;;;;4947921;28;20517;-52
2022/10/20 04:08:22;;;;;;;4.10;3.70;;;14.70;90.00;;;;;;4944073;28;20451;-52
2022/10/20 04:10:50;;;;;;;5.00;3.40;;;14.70;90.00;;;;;;4960157;28;20466;-52
2022/10/20 04:13:20;;;;;;;3.70;3.30;;;14.70;90.00;;;;;;4951084;28;20439;-51
2022/10/20 04:15:49;;;;;;;2.80;2.53;;;14.70;90.00;;;;;;4943202;29;21017;-53
2022/10/20 04:18:17;;;;;;;3.00;2.80;;;14.70;89.60;;;;;;4939179;29;20436;-52
2022/10/20 04:20:47;;;;;;;5.37;4.00;;;14.70;89.70;;;;;;4963058;28;20531;-52
2022/10/20 04:23:16;;;;;;;3.77;3.40;;;14.70;89.30;;;;;;4951288;28;20953;-52
2022/10/20 04:25:47;;;;;;;2.90;2.60;;;14.70;89.30;;;;;;4935828;29;20474;-52
2022/10/20 04:28:17;;;;;;;3.80;3.40;;;14.70;89.10;;;;;;4935950;29;20535;-52
2022/10/20 04:30:50;;;;;;;4.10;3.70;;;14.70;89.40;;;;;;4948458;28;20458;-51
2022/10/20 04:33:19;;;;;;;4.47;4.07;;;14.70;89.70;;;;;;4934324;28;20823;-52
2022/10/20 04:35:47;;;;;;;3.80;3.47;;;14.70;89.40;;;;;;4959635;28;20522;-51
2022/10/20 04:38:19;;;;;;;4.93;4.40;;;14.70;89.90;;;;;;4942354;28;20535;-52
2022/10/20 04:40:54;;;;;;;5.37;3.50;;;14.60;89.80;;;;;;4932783;29;20448;-52
2022/10/20 04:43:27;;;;;;;3.60;3.30;;;14.60;89.60;;;;;;4929510;29;20467;-52
2022/10/20 04:46:01;;;;;;;4.03;3.50;;;14.70;89.90;;;;;;4946510;28;20494;-53
2022/10/20 04:48:35;;;;;;;4.20;2.90;;;14.60;89.60;;;;;;4935072;29;20501;-53
2022/10/20 04:51:06;;;;;;;4.67;4.03;;;14.60;89.20;;;;;;4951489;29;20471;-52
2022/10/20 04:53:35;;;;;;;4.13;3.37;;;14.60;89.70;;;;;;4953373;28;20756;-53
2022/10/20 04:56:05;;;;;;;3.40;3.10;;;14.60;89.60;;;;;;4954554;28;20467;-52
2022/10/20 04:58:34;;;;;;;2.93;2.63;;;14.60;89.40;;;;;;4933812;29;20453;-51
2022/10/20 05:01:06;;;;;;;2.93;2.73;;;14.60;89.50;;;;;;4950040;29;20450;-52
2022/10/20 05:03:36;;;;;;;4.93;4.43;;;14.60;89.60;;;;;;4938937;28;20914;-53
2022/10/20 05:06:09;;;;;;;4.93;4.47;;;14.60;89.40;;;;;;4949691;28;20474;-53
2022/10/20 05:08:38;;;;;;;4.87;4.47;;;14.60;89.60;;;;;;4957309;28;20448;-50
2022/10/20 05:11:07;;;;;;;4.80;3.27;;;14.60;89.70;;;;;;4935525;29;20498;-52
2022/10/20 05:13:36;;;;;;;5.77;4.23;;;14.60;89.70;;;;;;4949838;29;20464;-53
2022/10/20 05:16:07;;;;;;;10.00;4.97;;;14.60;89.70;;;;;;4934923;29;20472;-52
2022/10/20 05:18:36;;;;;;;4.30;3.50;;;14.60;89.60;;;;;;4945202;28;20452;-51
2022/10/20 05:21:09;;;;;;;3.87;3.37;;;14.60;89.60;;;;;;4924444;29;20430;-51
2022/10/20 05:23:38;;;;;;;4.10;3.70;;;14.60;89.40;;;;;;4959651;28;20526;-52
2022/10/20 05:26:09;;;;;;;3.40;3.10;;;14.60;89.30;;;;;;4946433;29;20460;-51
2022/10/20 05:28:37;;;;;;;4.80;3.70;;;14.60;89.20;;;;;;4934710;29;20444;-52
2022/10/20 05:31:08;;;;;;;5.63;3.70;;;14.60;89.70;;;;;;4950196;29;20471;-51
2022/10/20 05:33:37;;;;;;;4.97;4.20;;;14.60;89.30;;;;;;4937795;28;20812;-53
2022/10/20 05:36:10;;;;;;;5.20;4.30;;;14.60;89.40;;;;;;4948087;29;20478;-51
2022/10/20 05:38:40;;;;;;;4.73;4.23;;;14.60;89.20;;;;;;4946567;28;20447;-52
2022/10/20 05:41:11;;;;;;;5.07;4.57;;;14.50;89.30;;;;;;4928567;29;20942;-52
2022/10/20 05:43:40;;;;;;;5.70;3.80;;;14.50;89.30;;;;;;4952735;28;20445;-54
2022/10/20 05:46:10;;;;;;;4.40;3.57;;;14.60;89.40;;;;;;4942377;28;20460;-52
2022/10/20 05:48:38;;;;;;;5.10;4.53;;;14.50;89.20;;;;;;4939796;28;20471;-52
2022/10/20 05:51:12;;;;;;;4.63;4.23;;;14.50;89.40;;;;;;4953453;29;20840;-53
2022/10/20 05:53:43;;;;;;;4.90;4.40;;;14.50;89.50;;;;;;4956956;28;20443;-51
2022/10/20 05:56:15;;;;;;;4.20;3.80;;;14.50;89.60;;;;;;4931697;29;21011;-50
2022/10/20 05:58:44;;;;;;;5.20;4.13;;;14.50;89.70;;;;;;4946348;29;20845;-52
2022/10/20 06:01:18;;;;;;;4.03;3.60;;;14.40;89.80;;;;;;4949993;28;20453;-53
2022/10/20 06:03:48;;;;;;;4.57;4.17;;;14.50;89.80;;;;;;4955238;28;20490;-52
2022/10/20 06:06:18;;;;;;;4.17;3.77;;;14.50;90.00;;;;;;4954661;29;20879;-51
2022/10/20 06:08:47;;;;;;;4.17;3.40;;;14.40;89.60;;;;;;4935232;28;20467;-51
2022/10/20 06:11:17;;;;;;;3.97;3.63;;;14.40;89.40;;;;;;4929694;29;20514;-50
2022/10/20 06:13:45;;;;;;;4.70;3.20;;;14.50;89.60;;;;;;4947515;29;20444;-51
2022/10/20 06:16:25;;;;;;;5.13;3.93;;;14.50;89.60;;;;;;4935341;29;20531;-51
2022/10/20 06:18:54;;;;;;;4.13;3.67;;;14.50;89.50;;;;;;4938927;29;20443;-52
2022/10/20 06:21:26;;;;;;;4.37;3.97;;;14.40;89.50;;;;;;4955015;29;20439;-53
2022/10/20 06:23:59;;;;;;;3.90;3.23;;;14.50;89.50;;;;;;4948830;28;20521;-52
2022/10/20 06:26:31;;;;;;;4.83;4.10;;;14.50;89.30;;;;;;4946255;28;20553;-51
2022/10/20 06:29:01;;;;;;;3.40;3.10;;;14.50;89.30;;;;;;4938120;29;20976;-52
2022/10/20 06:31:37;;;;;;;4.30;3.70;;;14.50;89.20;;;;;;4954124;28;20455;-52
2022/10/20 06:34:08;;;;;;;4.03;3.63;;;14.50;89.20;;;;;;4934768;29;20468;-51
2022/10/20 06:36:40;;;;;;;3.73;3.03;;;14.50;89.40;;;;;;4947264;28;21026;-52
2022/10/20 06:39:12;;;;;;;4.00;3.60;;;14.50;89.10;;;;;;4946280;28;20933;-52
2022/10/20 06:41:42;;;;;;;5.40;4.03;;;14.50;89.10;;;;;;4943332;28;20460;-52
2022/10/20 06:44:20;;;;;;;3.40;3.00;;;14.50;89.10;;;;;;4938947;28;20495;-52
2022/10/20 06:46:52;;;;;;;3.93;3.53;;;14.50;89.00;;;;;;4954251;29;20451;-51
2022/10/20 06:49:22;;;;;;;3.00;2.80;;;14.50;88.90;;;;;;4945932;28;20452;-49
2022/10/20 06:51:50;;;;;;;6.20;4.30;;;14.50;88.70;;;;;;4942898;29;20467;-50
2022/10/20 06:54:20;;;;;;;4.63;4.13;;;14.50;88.90;;;;;;4944389;29;21059;-52
2022/10/20 06:56:49;;;;;;;3.50;3.17;;;14.50;89.30;;;;;;4961909;28;20446;-51
2022/10/20 06:59:18;;;;;;;4.23;3.77;;;14.50;88.90;;;;;;4932278;29;20467;-51
2022/10/20 07:01:47;;;;;;;3.73;3.37;;;14.50;89.00;;;;;;4954568;28;20505;-51
2022/10/20 07:04:17;;;;;;;4.60;3.77;;;14.50;88.70;;;;;;4933033;29;20444;-52
2022/10/20 07:06:47;;;;;;;2.80;2.60;;;14.50;88.90;;;;;;4930785;29;20432;-52
2022/10/20 07:09:18;;;;;;;3.07;2.70;;;14.50;88.60;;;;;;4939923;28;20471;-52
2022/10/20 07:11:51;;;;;;;3.47;3.17;;;14.50;88.50;;;;;;4918263;28;20451;-52
2022/10/20 07:14:23;;;;;;;4.10;3.37;;;14.50;88.50;;;;;;4951342;28;20453;-51
2022/10/20 07:16:52;;;;;;;3.20;2.20;;;14.50;88.30;;;;;;4946345;29;20454;-52
2022/10/20 07:19:22;;;;;;;3.93;3.10;;;14.50;88.10;;;;;;4944565;28;20510;-52
2022/10/20 07:21:51;;;;;;;3.67;3.03;;;14.50;88.30;;;;;;4962832;28;20440;-51
2022/10/20 07:24:23;;;;;;;3.10;2.80;;;14.50;87.80;;;;;;4951924;29;20448;-50
2022/10/20 07:26:52;;;;;;;3.23;2.93;;;14.50;87.80;;;;;;4950275;28;20435;-51
2022/10/20 07:29:21;;;;;;;4.87;3.30;;;14.50;87.80;;;;;;4945667;29;20443;-51
2022/10/20 07:31:50;;;;;;;2.80;2.60;;;14.50;87.70;;;;;;4942349;29;20717;-53
2022/10/20 07:34:21;;;;;;;3.10;2.80;;;14.50;87.70;;;;;;4943779;29;20453;-51
2022/10/20 07:36:56;;;;;;;3.63;3.23;;;14.50;87.70;;;;;;4927319;29;20436;-53
2022/10/20 07:39:26;;;;;;;3.20;2.90;;;14.50;87.80;;;;;;4934431;29;21014;-51
2022/10/20 07:41:54;;;;;;;4.10;3.70;;;14.50;88.00;;;;;;4941533;23;20484;-69
2022/10/20 07:44:23;;;;;;;2.97;2.77;;;14.50;88.40;;;;;;4930184;29;20999;-68
2022/10/20 07:46:51;;;;;;;3.77;3.37;;;14.50;88.10;;;;;;4938213;29;20431;-69
2022/10/20 07:49:20;;;;;;;3.10;2.80;;;14.50;88.60;;;;;;4912420;29;20748;-69
2022/10/20 07:52:11;;;;;;;4.33;3.83;;;14.50;88.40;;;;;;4941451;29;20538;-72
2022/10/20 07:54:40;;;;;;;3.53;3.23;;;14.50;88.90;;;;;;4931093;29;20460;-72
2022/10/20 07:57:09;;;;;;;3.00;2.70;;;14.40;88.30;;;;;;4925152;28;20491;-71
2022/10/20 07:59:37;;;;;;;5.20;3.63;;;14.40;88.00;;;;;;4932139;29;21062;-72
2022/10/20 08:02:07;;;;;;;4.47;3.13;;;14.50;88.70;;;;;;4915116;29;20524;-72
2022/10/20 08:04:36;;;;;;;5.10;3.70;;;14.40;88.20;;;;;;4931182;29;20480;-72
2022/10/20 08:07:08;;;;;;;3.03;2.77;;;14.40;89.00;;;;;;4931982;29;20448;-72
2022/10/20 08:09:38;;;;;;;4.43;4.03;;;14.40;88.70;;;;;;4932462;29;20478;-69
2022/10/20 08:12:08;;;;;;;3.23;2.93;;;14.50;89.00;;;;;;4943747;29;20440;-69
2022/10/20 08:14:37;;;;;;;3.60;2.90;;;14.40;88.30;;;;;;4925539;29;21070;-69
2022/10/20 08:17:06;;;;;;;3.10;2.80;;;14.40;88.60;;;;;;4928545;29;20472;-69
2022/10/20 08:19:36;;;;;;;4.47;4.07;;;14.50;88.70;;;;;;4930364;29;20469;-69
2022/10/20 08:22:21;;;;;;;3.80;3.40;;;14.40;89.40;;;;;;4914365;29;20468;-69
2022/10/20 08:24:52;;;;;;;4.00;3.50;;;14.40;89.20;;;;;;4928620;29;20528;-69
2022/10/20 08:27:21;;;;;;;4.03;3.30;;;14.40;89.30;;;;;;4936978;29;20464;-69
2022/10/20 08:29:50;;;;;;;3.80;3.40;;;14.40;89.40;;;;;;4916869;29;20518;-68
2022/10/20 08:32:28;;;;;;;7.40;4.50;;;14.40;89.70;;;;;;4938304;29;20537;-69
2022/10/20 08:34:58;;;;;;;4.30;3.90;;;14.40;90.00;;;;;;4933026;29;20562;-69
2022/10/20 08:37:30;;;;;;;4.07;3.60;;;14.40;90.00;;;;;;4923655;29;20475;-69
2022/10/20 08:40:01;;;;;;;5.00;3.93;;;14.40;90.00;;;;;;4931899;29;20485;-69
2022/10/20 08:42:30;;;;;;;6.80;3.10;;;14.40;89.80;;;;;;4935228;29;20534;-69
2022/10/20 08:45:01;;;;;;;4.10;3.70;;;14.40;89.40;;;;;;4915865;29;20568;-69
2022/10/20 08:47:35;;;;;;;5.40;3.63;;;14.40;89.20;;;;;;4936795;28;20880;-69
2022/10/20 08:50:09;;;;;;;5.80;4.33;;;14.40;89.60;;;;;;4929808;28;20560;-69
2022/10/20 08:52:42;;;;;;;4.33;3.93;;;14.40;89.80;;;;;;4930165;29;20444;-69
2022/10/20 08:55:20;;;;;;;4.40;3.47;;;14.40;89.80;;;;;;4926082;29;20442;-69
2022/10/20 08:57:50;;;;;;;2.50;2.30;;;14.40;89.80;;;;;;4930336;29;20330;-69
2022/10/20 09:00:21;;;;;;;5.30;4.20;;;14.40;89.40;;;;;;4929554;29;20988;-69
2022/10/20 09:02:52;;;;;;;3.47;3.17;;;14.40;89.90;;;;;;4930828;29;20929;-69
2022/10/20 09:05:25;;;;;;;3.53;3.10;;;14.40;89.30;;;;;;4915079;29;20472;-69
2022/10/20 09:07:54;;;;;;;5.80;3.70;;;14.40;89.30;;;;;;4935732;28;20475;-69
2022/10/20 09:10:31;;;;;;;4.47;4.07;;;14.40;89.50;;;;;;4935967;29;21082;-69
2022/10/20 09:13:01;;;;;;;4.77;4.37;;;14.40;89.80;;;;;;4935442;29;20861;-69
2022/10/20 09:15:32;;;;;;;5.23;3.87;;;14.40;90.20;;;;;;4929950;29;20475;-69
2022/10/20 09:18:05;;;;;;;3.40;3.10;;;14.40;90.10;;;;;;4926660;29;20465;-69
2022/10/20 09:20:44;;;;;;;3.97;3.67;;;14.40;90.00;;;;;;4929580;29;20524;-69
2022/10/20 09:23:19;;;;;;;4.63;3.43;;;14.40;90.10;;;;;;4932805;29;20439;-69
2022/10/20 09:26:18;;;;;;;5.57;3.90;;;14.40;90.20;;;;;;4931624;29;20523;-69
2022/10/20 09:32:18;;;;;;;10.40;5.00;;;14.40;90.50;;;;;;4921493;29;20443;-69
2022/10/20 09:35:23;;;;;;;4.83;4.33;;;14.40;90.40;;;;;;4926884;29;20563;-69
2022/10/20 09:38:01;;;;;;;4.27;2.80;;;14.40;90.40;;;;;;4933568;29;20993;-69
2022/10/20 09:40:34;;;;;;;5.70;3.30;;;14.40;90.10;;;;;;4928879;29;21030;-69
2022/10/20 09:43:10;;;;;;;3.83;3.40;;;14.40;90.10;;;;;;4918466;29;20448;-69
2022/10/20 09:45:51;;;;;;;4.27;3.53;;;14.40;90.50;;;;;;4937907;29;20476;-72
2022/10/20 09:48:24;;;;;;;3.90;3.50;;;14.40;90.50;;;;;;4931185;29;20531;-72
2022/10/20 09:50:55;;;;;;;5.53;4.43;;;14.40;90.30;;;;;;4926650;29;20438;-72
2022/10/20 09:53:28;;;;;;;4.83;4.00;;;14.40;90.70;;;;;;4937652;29;20579;-72
2022/10/20 09:55:57;;;;;;;4.40;4.00;;;14.30;90.60;;;;;;4920368;29;20928;-72
2022/10/20 09:58:29;;;;;;;5.00;4.50;;;14.40;90.90;;;;;;4930172;29;20460;-72
2022/10/20 10:01:04;;;;;;;4.23;3.50;;;14.30;91.00;;;;;;4929947;29;20448;-72
2022/10/20 10:03:39;;;;;;;5.10;3.97;;;14.30;91.00;;;;;;4925249;29;20492;-72
2022/10/20 10:06:27;;;;;;;5.77;4.67;;;14.30;90.90;;;;;;4911249;29;20453;-72
2022/10/20 10:08:58;;;;;;;4.90;4.40;;;14.30;91.20;;;;;;4923665;29;20541;-73
2022/10/20 10:11:32;;;;;;;3.90;3.60;;;14.30;91.40;;;;;;4931201;29;20451;-73
2022/10/20 10:14:04;;;;;;;7.00;4.37;;;14.30;91.00;;;;;;4936996;29;20483;-72
2022/10/20 10:16:42;;;;;;;4.20;3.70;;;14.30;91.00;;;;;;4928950;29;20519;-73
2022/10/20 10:19:17;;;;;;;4.97;3.87;;;14.30;91.00;;;;;;4941746;28;20479;-73
2022/10/20 10:21:53;;;;;;;6.07;3.70;;;14.30;91.00;;;;;;4931752;29;20443;-72
2022/10/20 10:24:34;;;;;;;4.37;3.97;;;14.30;91.20;;;;;;4933050;29;20478;-72
2022/10/20 10:27:03;;;;;;;4.50;4.10;;;14.30;91.20;;;;;;4931389;29;20500;-73
2022/10/20 10:29:36;;;;;;;4.83;4.40;;;14.30;91.10;;;;;;4928495;29;20543;-72
2022/10/20 10:32:14;;;;;;;4.47;4.07;;;14.30;91.20;;;;;;4938595;28;20900;-72
2022/10/20 10:34:56;;;;;;;4.80;4.10;;;14.30;91.00;;;;;;4946007;29;20566;-70
2022/10/20 10:37:24;;;;;;;4.00;3.60;;;14.30;91.10;;;;;;4938853;28;20834;-70
2022/10/20 10:39:57;;;;;;;3.87;3.50;;;14.30;90.90;;;;;;4917344;29;20841;-70
2022/10/20 10:42:57;;;;;;;4.33;3.63;;;14.30;91.00;;;;;;4941941;29;20484;-70
2022/10/20 10:45:41;;;;;;;5.63;4.40;;;14.30;91.20;;;;;;4928087;29;20478;-70
2022/10/20 10:48:30;;;;;;;4.70;3.97;;;14.30;91.60;;;;;;4936916;29;20498;-69
2022/10/20 10:51:04;;;;;;;3.97;3.63;;;14.30;91.70;;;;;;4923450;29;21011;-69
2022/10/20 10:53:54;;;;;;;3.93;3.63;;;14.30;91.60;;;;;;4925893;29;20815;-68
2022/10/20 10:56:32;;;;;;;5.30;4.87;;;14.30;91.90;;;;;;4941430;29;20436;-70
2022/10/20 10:59:09;;;;;;;7.93;5.07;;;14.30;92.30;;;;;;4948641;28;20475;-69
2022/10/20 11:02:14;;;;;;;5.43;4.83;;;14.30;92.60;;;;;;4926495;29;20546;-69
2022/10/20 11:05:09;;;;;;;4.53;4.13;;;14.30;92.40;;;;;;4931103;29;20474;-69
2022/10/20 11:07:45;;;;;;;8.13;4.90;;;14.20;92.30;;;;;;4913405;29;20480;-70
2022/10/20 11:10:24;;;;;;;6.90;4.30;;;14.30;92.30;;;;;;4940495;29;20522;-70
2022/10/20 11:13:30;;;;;;;4.60;4.20;;;14.30;92.50;;;;;;4937523;29;20444;-70
2022/10/20 11:16:33;;;;;;;6.97;4.40;;;14.20;92.30;;;;;;4940569;29;20482;-69
2022/10/20 11:19:37;;;;;;;5.10;4.00;;;14.20;92.70;;;;;;4910898;29;20539;-70
2022/10/20 11:22:30;;;;;;;5.40;4.20;;;14.20;92.80;;;;;;4932311;29;20975;-70
2022/10/20 11:25:25;;;;;;;5.77;4.07;;;14.20;92.50;;;;;;4911904;29;20468;-69
2022/10/20 11:28:29;;;;;;;5.27;4.77;;;14.20;92.70;;;;;;4938656;29;20469;-69
2022/10/20 11:31:18;;;;;;;7.30;4.30;;;14.20;93.40;;;;;;4912592;29;20468;-69
2022/10/20 11:34:09;;;;;;;7.00;4.93;;;14.20;92.70;;;;;;4934954;29;20447;-69
2022/10/20 11:37:03;;;;;;;5.30;4.57;;;14.20;92.80;;;;;;4944488;29;20957;-70
2022/10/20 11:39:44;;;;;;;4.80;4.03;;;14.20;92.60;;;;;;4919638;29;20457;-70
2022/10/20 11:42:37;;;;;;;4.40;4.00;;;14.30;92.60;;;;;;4908239;29;20823;-68
2022/10/20 11:45:33;;;;;;;4.40;3.97;;;14.20;92.40;;;;;;4929816;29;20761;-69
2022/10/20 11:48:18;;;;;;;5.10;3.90;;;14.20;92.70;;;;;;4928066;29;20508;-69
2022/10/20 11:51:14;;;;;;;5.10;4.60;;;14.30;92.60;;;;;;4936930;29;20454;-72
2022/10/20 11:54:13;;;;;;;4.40;3.80;;;14.20;93.40;;;;;;4934257;29;20451;-72
2022/10/20 11:57:02;;;;;;;4.90;4.50;;;14.20;92.80;;;;;;4932075;29;20865;-72
2022/10/20 11:59:56;;;;;;;5.10;4.60;;;14.20;92.60;;;;;;4929829;29;20926;-72
2022/10/20 12:03:13;;;;;;;3.97;3.57;;;14.30;92.60;;;;;;4940975;29;20457;-72
2022/10/20 12:06:15;;;;;;;3.90;3.30;;;14.20;92.10;;;;;;4943649;29;20466;-71
2022/10/20 12:09:01;;;;;;;2.70;2.50;;;14.20;92.10;;;;;;4934824;28;21026;-72
2022/10/20 12:11:36;;;;;;;8.13;4.40;;;14.20;92.10;;;;;;4907850;29;20460;-73
2022/10/20 12:14:18;;;;;;;5.73;4.33;;;14.30;93.10;;;;;;4925190;29;20574;-73
2022/10/20 12:17:25;;;;;;;6.30;5.13;;;14.30;93.60;;;;;;4931934;29;20473;-69
2022/10/20 12:20:38;;;;;;;6.00;4.80;;;14.20;93.70;;;;;;4877786;29;20482;-69
2022/10/20 12:23:48;;;;;;;5.20;4.70;;;14.20;93.50;;;;;;4871634;29;21048;-69
2022/10/20 12:27:06;;;;;;;4.63;4.20;;;14.30;94.00;;;;;;4926446;29;20466;-69
2022/10/20 12:30:26;;;;;;;6.00;4.60;;;14.20;93.80;;;;;;4928932;29;20575;-69
2022/10/20 12:33:37;;;;;;;4.53;4.13;;;14.20;93.70;;;;;;4934956;29;20539;-72
2022/10/20 12:36:35;;;;;;;6.87;5.40;;;14.20;93.70;;;;;;4926208;29;20465;-72
2022/10/20 12:39:23;;;;;;;5.50;4.70;;;14.20;93.80;;;;;;4934256;29;20520;-72
2022/10/20 12:41:59;;;;;;;4.33;3.90;;;14.30;94.10;;;;;;4905960;29;20829;-72
2022/10/20 12:44:39;;;;;;;5.33;4.50;;;14.20;93.80;;;;;;4941163;29;20456;-72
2022/10/20 12:47:10;;;;;;;4.40;4.00;;;14.20;93.30;;;;;;4931655;29;20452;-72
2022/10/20 12:49:50;;;;;;;5.70;4.33;;;14.20;93.30;;;;;;4924475;29;20571;-72
2022/10/20 12:52:23;;;;;;;3.70;3.40;;;14.30;93.10;;;;;;4932998;29;20451;-72
2022/10/20 12:54:59;;;;;;;3.97;3.30;;;14.20;93.30;;;;;;4923677;29;20548;-72
2022/10/20 12:57:34;;;;;;;3.70;3.40;;;14.30;92.70;;;;;;4939403;29;20582;-72
2022/10/20 13:00:06;;;;;;;3.60;3.30;;;14.20;92.60;;;;;;4925460;29;20554;-72
2022/10/20 13:02:47;;;;;;;5.40;4.50;;;14.30;92.50;;;;;;4938915;29;20540;-72
2022/10/20 13:05:45;;;;;;;4.87;4.47;;;14.30;93.30;;;;;;4918372;29;20480;-72
2022/10/20 13:08:36;;;;;;;4.47;4.07;;;14.20;93.50;;;;;;4930277;29;20570;-72
2022/10/20 13:11:44;;;;;;;4.77;4.30;;;14.30;94.00;;;;;;4922444;29;20440;-72
2022/10/20 13:14:51;;;;;;;3.17;2.87;;;14.30;93.50;;;;;;4935696;29;20786;-72
2022/10/20 13:17:40;;;;;;;4.77;3.60;;;14.20;93.20;;;;;;4861132;29;20891;-72
2022/10/20 13:20:23;;;;;;;4.40;4.00;;;14.20;93.30;;;;;;4941547;29;20498;-72
2022/10/20 13:22:55;;;;;;;4.40;3.90;;;14.30;93.30;;;;;;4933205;29;20935;-72
2022/10/20 13:25:34;;;;;;;3.53;3.23;;;14.30;93.00;;;;;;4928306;29;20562;-72
2022/10/20 13:28:07;;;;;;;4.93;4.33;;;14.30;93.20;;;;;;4931735;29;20555;-72
2022/10/20 13:30:36;;;;;;;4.30;3.90;;;14.30;93.00;;;;;;4941611;28;20515;-72
2022/10/20 13:33:16;;;;;;;4.10;3.70;;;14.20;92.70;;;;;;4935494;29;20457;-72
2022/10/20 13:36:07;;;;;;;4.60;4.20;;;14.30;93.40;;;;;;4924775;29;20548;-72